createdAt,value
2022-11-24T00:00:04.597Z,15.72
2022-11-24T00:00:14.595Z,15.70
2022-11-24T00:00:24.588Z,15.70
2022-11-24T00:00:34.597Z,15.72
2022-11-24T00:00:44.602Z,15.69
2022-11-24T00:00:54.596Z,15.70
2022-11-24T00:01:04.595Z,15.69
2022-11-24T00:01:14.600Z,15.69
2022-11-24T00:01:24.603Z,15.70
2022-11-24T00:01:34.583Z,15.70
2022-11-24T00:01:44.600Z,15.70
2022-11-24T00:01:54.645Z,15.70
2022-11-24T00:02:04.813Z,15.69
2022-11-24T00:02:14.691Z,15.70
2022-11-24T00:02:24.690Z,15.69
2022-11-24T00:02:34.737Z,15.70
2022-11-24T00:02:44.730Z,15.70
2022-11-24T00:02:54.693Z,15.70
2022-11-24T00:03:04.757Z,15.69
2022-11-24T00:03:14.677Z,15.70
2022-11-24T00:03:24.656Z,15.69
2022-11-24T00:03:34.690Z,15.69
2022-11-24T00:03:44.644Z,15.70
2022-11-24T00:03:54.610Z,15.69
2022-11-24T00:04:04.627Z,15.70
2022-11-24T00:04:14.609Z,15.68
2022-11-24T00:04:24.606Z,15.70
2022-11-24T00:04:34.994Z,15.69
2022-11-24T00:04:44.612Z,15.69
2022-11-24T00:04:54.608Z,15.69
2022-11-24T00:05:04.611Z,15.70
2022-11-24T00:05:14.610Z,15.69
2022-11-24T00:05:24.607Z,15.69
2022-11-24T00:05:34.609Z,15.70
2022-11-24T00:05:44.616Z,15.70
2022-11-24T00:05:54.613Z,15.69
2022-11-24T00:06:04.616Z,15.70
2022-11-24T00:06:14.616Z,15.68
2022-11-24T00:06:24.618Z,15.69
2022-11-24T00:06:34.615Z,15.69
2022-11-24T00:06:44.619Z,15.69
2022-11-24T00:06:54.617Z,15.68
2022-11-24T00:07:04.621Z,15.69
2022-11-24T00:07:14.665Z,15.69
2022-11-24T00:07:24.657Z,15.69
2022-11-24T00:07:34.705Z,15.69
2022-11-24T00:07:44.692Z,15.69
2022-11-24T00:07:54.688Z,15.69
2022-11-24T00:08:04.639Z,15.70
2022-11-24T00:08:14.623Z,15.69
2022-11-24T00:08:24.621Z,15.69
2022-11-24T00:08:34.621Z,15.70
2022-11-24T00:08:44.626Z,15.69
2022-11-24T00:08:54.629Z,15.70
2022-11-24T00:09:04.630Z,15.69
2022-11-24T00:09:14.625Z,15.70
2022-11-24T00:09:24.628Z,15.69
2022-11-24T00:09:34.610Z,15.69
2022-11-24T00:09:44.632Z,15.69
2022-11-24T00:09:54.631Z,15.70
2022-11-24T00:10:04.628Z,15.69
2022-11-24T00:10:14.635Z,15.69
2022-11-24T00:10:24.632Z,15.69
2022-11-24T00:10:34.616Z,15.69
2022-11-24T00:10:44.635Z,15.69
2022-11-24T00:10:54.631Z,15.70
2022-11-24T00:11:04.631Z,15.70
2022-11-24T00:11:14.632Z,15.69
2022-11-24T00:11:24.633Z,15.69
2022-11-24T00:11:34.637Z,15.69
2022-11-24T00:11:44.637Z,15.68
2022-11-24T00:11:54.634Z,15.70
2022-11-24T00:12:04.634Z,15.69
2022-11-24T00:12:14.639Z,15.69
2022-11-24T00:12:24.635Z,15.69
2022-11-24T00:12:34.622Z,15.69
2022-11-24T00:12:44.663Z,15.69
2022-11-24T00:12:54.638Z,15.69
2022-11-24T00:13:04.642Z,15.69
2022-11-24T00:13:14.626Z,15.69
2022-11-24T00:13:24.636Z,15.69
2022-11-24T00:13:34.639Z,15.69
2022-11-24T00:13:44.636Z,15.68
2022-11-24T00:13:54.640Z,15.70
2022-11-24T00:14:04.643Z,15.69
2022-11-24T00:14:14.639Z,15.69
2022-11-24T00:14:24.641Z,15.69
2022-11-24T00:14:35.005Z,15.69
2022-11-24T00:14:44.643Z,15.69
2022-11-24T00:14:54.649Z,15.69
2022-11-24T00:15:04.655Z,15.70
2022-11-24T00:15:14.645Z,15.68
2022-11-24T00:15:24.648Z,15.69
2022-11-24T00:15:34.655Z,15.68
2022-11-24T00:15:44.648Z,15.69
2022-11-24T00:15:54.649Z,15.70
2022-11-24T00:16:04.662Z,15.68
2022-11-24T00:16:14.774Z,15.69
2022-11-24T00:16:24.702Z,15.69
2022-11-24T00:16:34.722Z,15.69
2022-11-24T00:16:44.714Z,15.69
2022-11-24T00:16:54.699Z,15.69
2022-11-24T00:17:04.704Z,15.69
2022-11-24T00:17:14.652Z,15.68
2022-11-24T00:17:24.636Z,15.69
2022-11-24T00:17:34.654Z,15.69
2022-11-24T00:17:44.652Z,15.68
2022-11-24T00:17:54.651Z,15.69
2022-11-24T00:18:04.668Z,15.68
2022-11-24T00:18:14.639Z,15.69
2022-11-24T00:18:24.657Z,15.68
2022-11-24T00:18:34.657Z,15.69
2022-11-24T00:18:44.654Z,15.69
2022-11-24T00:18:54.666Z,15.69
2022-11-24T00:19:04.690Z,15.69
2022-11-24T00:19:19.465Z,15.69
2022-11-24T00:19:25.656Z,15.69
2022-11-24T00:19:34.661Z,15.68
2022-11-24T00:19:44.661Z,15.69
2022-11-24T00:19:54.662Z,15.68
2022-11-24T00:20:04.683Z,15.68
2022-11-24T00:20:14.666Z,15.65
2022-11-24T00:20:24.669Z,15.69
2022-11-24T00:20:34.664Z,15.68
2022-11-24T00:20:44.671Z,15.68
2022-11-24T00:20:54.668Z,15.69
2022-11-24T00:21:04.681Z,15.68
2022-11-24T00:21:14.667Z,15.68
2022-11-24T00:21:24.669Z,15.68
2022-11-24T00:21:34.674Z,15.69
2022-11-24T00:21:44.671Z,15.69
2022-11-24T00:21:54.673Z,15.68
2022-11-24T00:22:04.678Z,15.69
2022-11-24T00:22:14.670Z,15.69
2022-11-24T00:22:24.674Z,15.68
2022-11-24T00:22:34.680Z,15.68
2022-11-24T00:22:44.670Z,15.69
2022-11-24T00:22:54.663Z,15.68
2022-11-24T00:23:04.672Z,15.69
2022-11-24T00:23:14.674Z,15.68
2022-11-24T00:23:24.682Z,15.69
2022-11-24T00:23:34.682Z,15.69
2022-11-24T00:23:44.686Z,15.68
2022-11-24T00:23:54.690Z,15.68
2022-11-24T00:24:04.683Z,15.68
2022-11-24T00:24:14.679Z,15.69
2022-11-24T00:24:24.687Z,15.68
2022-11-24T00:24:35.098Z,15.69
2022-11-24T00:24:44.685Z,15.68
2022-11-24T00:24:54.684Z,15.68
2022-11-24T00:25:04.682Z,15.68
2022-11-24T00:25:14.688Z,15.65
2022-11-24T00:25:24.692Z,15.68
2022-11-24T00:25:34.689Z,15.68
2022-11-24T00:25:44.693Z,15.68
2022-11-24T00:25:54.696Z,15.65
2022-11-24T00:26:04.676Z,15.68
2022-11-24T00:26:14.689Z,15.68
2022-11-24T00:26:24.697Z,15.65
2022-11-24T00:26:34.710Z,15.65
2022-11-24T00:26:44.688Z,15.68
2022-11-24T00:26:54.688Z,15.68
2022-11-24T00:27:04.701Z,15.68
2022-11-24T00:27:14.691Z,15.65
2022-11-24T00:27:24.693Z,15.68
2022-11-24T00:27:34.701Z,15.68
2022-11-24T00:27:44.694Z,15.69
2022-11-24T00:27:54.697Z,15.68
2022-11-24T00:28:04.694Z,15.68
2022-11-24T00:28:14.694Z,15.65
2022-11-24T00:28:24.696Z,15.65
2022-11-24T00:28:34.698Z,15.68
2022-11-24T00:28:44.700Z,15.68
2022-11-24T00:28:54.729Z,15.68
2022-11-24T00:29:04.688Z,15.65
2022-11-24T00:29:14.683Z,15.65
2022-11-24T00:29:24.802Z,15.68
2022-11-24T00:29:34.700Z,15.68
2022-11-24T00:29:44.726Z,15.68
2022-11-24T00:29:54.707Z,15.65
2022-11-24T00:30:04.692Z,15.68
2022-11-24T00:30:14.706Z,15.68
2022-11-24T00:30:24.809Z,15.65
2022-11-24T00:30:34.792Z,15.68
2022-11-24T00:30:44.750Z,15.68
2022-11-24T00:30:54.770Z,15.68
2022-11-24T00:31:04.749Z,15.65
2022-11-24T00:31:17.206Z,15.68
2022-11-24T00:31:24.783Z,15.68
2022-11-24T00:31:34.755Z,15.65
2022-11-24T00:31:44.712Z,15.68
2022-11-24T00:31:54.722Z,15.68
2022-11-24T00:32:04.710Z,15.68
2022-11-24T00:32:14.719Z,15.68
2022-11-24T00:32:24.715Z,15.68
2022-11-24T00:32:34.718Z,15.65
2022-11-24T00:32:44.725Z,15.65
2022-11-24T00:32:54.712Z,15.68
2022-11-24T00:33:04.715Z,15.65
2022-11-24T00:33:14.730Z,15.65
2022-11-24T00:33:24.715Z,15.68
2022-11-24T00:33:35.254Z,15.65
2022-11-24T00:33:44.711Z,15.68
2022-11-24T00:33:54.715Z,15.68
2022-11-24T00:34:04.730Z,15.69
2022-11-24T00:34:14.719Z,15.65
2022-11-24T00:34:24.718Z,15.68
2022-11-24T00:34:35.020Z,15.68
2022-11-24T00:34:44.719Z,15.68
2022-11-24T00:34:54.724Z,15.68
2022-11-24T00:35:04.727Z,15.68
2022-11-24T00:35:14.726Z,15.69
2022-11-24T00:35:24.732Z,15.68
2022-11-24T00:35:34.725Z,15.69
2022-11-24T00:35:44.729Z,15.69
2022-11-24T00:35:54.730Z,15.68
2022-11-24T00:36:04.732Z,15.68
2022-11-24T00:36:14.730Z,15.69
2022-11-24T00:36:24.734Z,15.68
2022-11-24T00:36:34.723Z,15.68
2022-11-24T00:36:44.733Z,15.69
2022-11-24T00:36:54.732Z,15.68
2022-11-24T00:37:04.732Z,15.69
2022-11-24T00:37:14.716Z,15.68
2022-11-24T00:37:24.732Z,15.65
2022-11-24T00:37:34.733Z,15.68
2022-11-24T00:37:44.729Z,15.69
2022-11-24T00:37:54.742Z,15.69
2022-11-24T00:38:04.732Z,15.68
2022-11-24T00:38:14.734Z,15.69
2022-11-24T00:38:24.739Z,15.69
2022-11-24T00:38:34.865Z,15.69
2022-11-24T00:38:44.740Z,15.70
2022-11-24T00:38:54.745Z,15.69
2022-11-24T00:39:04.748Z,15.69
2022-11-24T00:39:14.746Z,15.69
2022-11-24T00:39:24.779Z,15.70
2022-11-24T00:39:34.741Z,15.69
2022-11-24T00:39:44.745Z,15.70
2022-11-24T00:39:54.752Z,15.70
2022-11-24T00:40:04.750Z,15.70
2022-11-24T00:40:14.743Z,15.69
2022-11-24T00:40:24.749Z,15.70
2022-11-24T00:40:35.232Z,15.70
2022-11-24T00:40:44.745Z,15.70
2022-11-24T00:40:54.750Z,15.68
2022-11-24T00:41:04.750Z,15.69
2022-11-24T00:41:14.750Z,15.70
2022-11-24T00:41:24.753Z,15.70
2022-11-24T00:41:34.753Z,15.69
2022-11-24T00:41:44.750Z,15.70
2022-11-24T00:41:54.750Z,15.70
2022-11-24T00:42:04.753Z,15.70
2022-11-24T00:42:14.751Z,15.69
2022-11-24T00:42:24.759Z,15.69
2022-11-24T00:42:34.756Z,15.70
2022-11-24T00:42:44.754Z,15.69
2022-11-24T00:42:54.752Z,15.69
2022-11-24T00:43:04.765Z,15.70
2022-11-24T00:43:14.761Z,15.69
2022-11-24T00:43:24.765Z,15.70
2022-11-24T00:43:35.303Z,15.69
2022-11-24T00:43:44.756Z,15.69
2022-11-24T00:43:54.756Z,15.70
2022-11-24T00:44:04.764Z,15.70
2022-11-24T00:44:14.763Z,15.69
2022-11-24T00:44:24.761Z,15.69
2022-11-24T00:44:35.039Z,15.69
2022-11-24T00:44:44.768Z,15.69
2022-11-24T00:44:54.769Z,15.69
2022-11-24T00:45:13.593Z,15.69
2022-11-24T00:45:15.761Z,15.69
2022-11-24T00:45:24.763Z,15.69
2022-11-24T00:45:34.806Z,15.70
2022-11-24T00:45:44.896Z,15.69
2022-11-24T00:45:54.935Z,15.69
2022-11-24T00:46:04.904Z,15.69
2022-11-24T00:46:14.947Z,15.69
2022-11-24T00:46:24.956Z,15.69
2022-11-24T00:46:34.973Z,15.69
2022-11-24T00:46:44.894Z,15.68
2022-11-24T00:46:54.876Z,15.68
2022-11-24T00:47:04.888Z,15.69
2022-11-24T00:47:14.867Z,15.68
2022-11-24T00:47:24.831Z,15.69
2022-11-24T00:47:34.777Z,15.69
2022-11-24T00:47:44.774Z,15.65
2022-11-24T00:47:54.786Z,15.68
2022-11-24T00:48:04.781Z,15.69
2022-11-24T00:48:14.775Z,15.68
2022-11-24T00:48:24.777Z,15.68
2022-11-24T00:48:35.788Z,15.65
2022-11-24T00:48:44.765Z,15.68
2022-11-24T00:48:54.781Z,15.65
2022-11-24T00:49:04.784Z,15.64
2022-11-24T00:49:14.783Z,15.68
2022-11-24T00:49:24.788Z,15.65
2022-11-24T00:49:34.782Z,15.68
2022-11-24T00:49:44.789Z,15.68
2022-11-24T00:49:54.780Z,15.65
2022-11-24T00:50:04.782Z,15.64
2022-11-24T00:50:14.782Z,15.65
2022-11-24T00:50:24.783Z,15.65
2022-11-24T00:50:34.786Z,15.65
2022-11-24T00:50:44.783Z,15.65
2022-11-24T00:50:54.786Z,15.65
2022-11-24T00:51:04.786Z,15.65
2022-11-24T00:51:14.784Z,15.65
2022-11-24T00:51:24.797Z,15.65
2022-11-24T00:51:34.784Z,15.65
2022-11-24T00:51:44.793Z,15.65
2022-11-24T00:51:54.789Z,15.65
2022-11-24T00:52:04.787Z,15.65
2022-11-24T00:52:14.790Z,15.64
2022-11-24T00:52:24.785Z,15.65
2022-11-24T00:52:34.788Z,15.65
2022-11-24T00:52:44.795Z,15.65
2022-11-24T00:52:54.794Z,15.68
2022-11-24T00:53:04.793Z,15.65
2022-11-24T00:53:14.796Z,15.65
2022-11-24T00:53:24.794Z,15.68
2022-11-24T00:53:35.782Z,15.65
2022-11-24T00:53:44.796Z,15.65
2022-11-24T00:53:54.792Z,15.65
2022-11-24T00:54:04.801Z,15.68
2022-11-24T00:54:14.794Z,15.65
2022-11-24T00:54:24.794Z,15.65
2022-11-24T00:54:35.235Z,15.65
2022-11-24T00:54:44.795Z,15.64
2022-11-24T00:54:54.802Z,15.64
2022-11-24T00:55:04.798Z,15.64
2022-11-24T00:55:14.801Z,15.68
2022-11-24T00:55:24.799Z,15.64
2022-11-24T00:55:34.802Z,15.65
2022-11-24T00:55:44.801Z,15.64
2022-11-24T00:55:54.804Z,15.64
2022-11-24T00:56:04.807Z,15.62
2022-11-24T00:56:14.804Z,15.62
2022-11-24T00:56:24.805Z,15.65
2022-11-24T00:56:34.812Z,15.65
2022-11-24T00:56:44.807Z,15.64
2022-11-24T00:56:54.809Z,15.64
2022-11-24T00:57:04.825Z,15.64
2022-11-24T00:57:14.812Z,15.64
2022-11-24T00:57:24.813Z,15.64
2022-11-24T00:57:34.829Z,15.64
2022-11-24T00:57:44.814Z,15.62
2022-11-24T00:57:54.817Z,15.64
2022-11-24T00:58:04.817Z,15.62
2022-11-24T00:58:14.820Z,15.64
2022-11-24T00:58:24.821Z,15.62
2022-11-24T00:58:35.791Z,15.62
2022-11-24T00:58:44.818Z,15.62
2022-11-24T00:58:54.822Z,15.62
2022-11-24T00:59:04.831Z,15.62
2022-11-24T00:59:14.825Z,15.62
2022-11-24T00:59:24.823Z,15.62
2022-11-24T00:59:34.824Z,15.64
2022-11-24T00:59:44.823Z,15.62
2022-11-24T00:59:54.829Z,15.62
2022-11-24T01:00:04.830Z,15.62
2022-11-24T01:00:14.832Z,15.62
2022-11-24T01:00:24.827Z,15.65
2022-11-24T01:00:34.836Z,15.64
2022-11-24T01:00:44.838Z,15.62
2022-11-24T01:00:54.827Z,15.64
2022-11-24T01:01:04.958Z,15.64
2022-11-24T01:01:14.873Z,15.64
2022-11-24T01:01:24.877Z,15.64
2022-11-24T01:01:34.874Z,15.64
2022-11-24T01:01:44.936Z,15.64
2022-11-24T01:01:54.900Z,15.64
2022-11-24T01:02:04.884Z,15.64
2022-11-24T01:02:14.894Z,15.62
2022-11-24T01:02:24.891Z,15.62
2022-11-24T01:02:34.885Z,15.64
2022-11-24T01:02:44.886Z,15.64
2022-11-24T01:02:54.917Z,15.62
2022-11-24T01:03:04.926Z,15.62
2022-11-24T01:03:14.845Z,15.64
2022-11-24T01:03:24.843Z,15.64
2022-11-24T01:03:34.881Z,15.62
2022-11-24T01:03:44.855Z,15.64
2022-11-24T01:03:54.845Z,15.62
2022-11-24T01:04:04.832Z,15.64
2022-11-24T01:04:14.845Z,15.64
2022-11-24T01:04:24.830Z,15.64
2022-11-24T01:04:35.117Z,15.62
2022-11-24T01:04:44.848Z,15.62
2022-11-24T01:04:54.859Z,15.62
2022-11-24T01:05:04.851Z,15.64
2022-11-24T01:05:14.850Z,15.62
2022-11-24T01:05:24.850Z,15.61
2022-11-24T01:05:34.853Z,15.62
2022-11-24T01:05:44.854Z,15.62
2022-11-24T01:05:54.850Z,15.64
2022-11-24T01:06:04.856Z,15.62
2022-11-24T01:06:14.859Z,15.62
2022-11-24T01:06:24.854Z,15.62
2022-11-24T01:06:34.868Z,15.64
2022-11-24T01:06:44.855Z,15.64
2022-11-24T01:06:54.855Z,15.64
2022-11-24T01:07:04.860Z,15.61
2022-11-24T01:07:14.919Z,15.61
2022-11-24T01:07:24.886Z,15.62
2022-11-24T01:07:34.910Z,15.61
2022-11-24T01:07:44.905Z,15.62
2022-11-24T01:07:54.908Z,15.62
2022-11-24T01:08:04.865Z,15.62
2022-11-24T01:08:14.869Z,15.62
2022-11-24T01:08:24.862Z,15.62
2022-11-24T01:08:34.858Z,15.62
2022-11-24T01:08:44.848Z,15.62
2022-11-24T01:08:54.909Z,15.62
2022-11-24T01:09:04.875Z,15.61
2022-11-24T01:09:14.868Z,15.62
2022-11-24T01:09:24.870Z,15.62
2022-11-24T01:09:34.864Z,15.62
2022-11-24T01:09:44.870Z,15.61
2022-11-24T01:09:54.873Z,15.62
2022-11-24T01:10:04.881Z,15.61
2022-11-24T01:10:14.870Z,15.62
2022-11-24T01:10:24.870Z,15.61
2022-11-24T01:10:34.869Z,15.61
2022-11-24T01:10:44.869Z,15.61
2022-11-24T01:10:54.872Z,15.61
2022-11-24T01:11:04.874Z,15.61
2022-11-24T01:11:14.875Z,15.62
2022-11-24T01:11:24.878Z,15.62
2022-11-24T01:11:34.880Z,15.61
2022-11-24T01:11:44.883Z,15.62
2022-11-24T01:11:54.875Z,15.62
2022-11-24T01:12:04.882Z,15.61
2022-11-24T01:12:14.879Z,15.61
2022-11-24T01:12:24.878Z,15.61
2022-11-24T01:12:34.878Z,15.62
2022-11-24T01:12:44.879Z,15.61
2022-11-24T01:12:54.881Z,15.62
2022-11-24T01:13:04.882Z,15.62
2022-11-24T01:13:14.883Z,15.60
2022-11-24T01:13:24.884Z,15.61
2022-11-24T01:13:34.884Z,15.62
2022-11-24T01:13:44.882Z,15.62
2022-11-24T01:13:54.890Z,15.62
2022-11-24T01:14:04.897Z,15.62
2022-11-24T01:14:14.884Z,15.61
2022-11-24T01:14:24.893Z,15.61
2022-11-24T01:14:35.137Z,15.62
2022-11-24T01:14:44.886Z,15.62
2022-11-24T01:14:54.892Z,15.61
2022-11-24T01:15:04.891Z,15.61
2022-11-24T01:15:14.901Z,15.62
2022-11-24T01:15:24.888Z,15.61
2022-11-24T01:15:34.922Z,15.60
2022-11-24T01:15:44.914Z,15.61
2022-11-24T01:15:54.960Z,15.61
2022-11-24T01:16:05.002Z,15.61
2022-11-24T01:16:14.922Z,15.60
2022-11-24T01:16:25.007Z,15.61
2022-11-24T01:16:34.891Z,15.60
2022-11-24T01:16:44.892Z,15.61
2022-11-24T01:16:54.901Z,15.62
2022-11-24T01:17:04.894Z,15.61
2022-11-24T01:17:14.898Z,15.61
2022-11-24T01:17:24.895Z,15.61
2022-11-24T01:17:34.896Z,15.62
2022-11-24T01:17:44.903Z,15.61
2022-11-24T01:17:54.896Z,15.61
2022-11-24T01:18:04.896Z,15.62
2022-11-24T01:18:14.901Z,15.62
2022-11-24T01:18:24.905Z,15.61
2022-11-24T01:18:35.039Z,15.61
2022-11-24T01:18:44.897Z,15.62
2022-11-24T01:18:54.901Z,15.61
2022-11-24T01:19:04.911Z,15.61
2022-11-24T01:19:15.124Z,15.61
2022-11-24T01:19:24.910Z,15.62
2022-11-24T01:19:34.901Z,15.61
2022-11-24T01:19:44.905Z,15.61
2022-11-24T01:19:54.907Z,15.62
2022-11-24T01:20:04.908Z,15.61
2022-11-24T01:20:14.904Z,15.61
2022-11-24T01:20:24.911Z,15.61
2022-11-24T01:20:34.907Z,15.61
2022-11-24T01:20:44.908Z,15.61
2022-11-24T01:20:54.941Z,15.61
2022-11-24T01:21:09.797Z,15.62
2022-11-24T01:21:15.908Z,15.61
2022-11-24T01:21:24.911Z,15.60
2022-11-24T01:21:34.911Z,15.61
2022-11-24T01:21:44.916Z,15.61
2022-11-24T01:21:54.919Z,15.60
2022-11-24T01:22:04.916Z,15.61
2022-11-24T01:22:14.914Z,15.60
2022-11-24T01:22:24.920Z,15.61
2022-11-24T01:22:34.921Z,15.61
2022-11-24T01:22:44.918Z,15.60
2022-11-24T01:22:54.917Z,15.61
2022-11-24T01:23:04.937Z,15.60
2022-11-24T01:23:14.918Z,15.60
2022-11-24T01:23:24.927Z,15.60
2022-11-24T01:23:35.044Z,15.58
2022-11-24T01:23:44.921Z,15.60
2022-11-24T01:23:54.929Z,15.60
2022-11-24T01:24:04.924Z,15.60
2022-11-24T01:24:14.922Z,15.60
2022-11-24T01:24:24.928Z,15.61
2022-11-24T01:24:35.251Z,15.58
2022-11-24T01:24:44.925Z,15.60
2022-11-24T01:24:54.934Z,15.60
2022-11-24T01:25:04.922Z,15.60
2022-11-24T01:25:14.930Z,15.61
2022-11-24T01:25:24.923Z,15.60
2022-11-24T01:25:34.923Z,15.58
2022-11-24T01:25:44.944Z,15.58
2022-11-24T01:25:54.926Z,15.60
2022-11-24T01:26:04.933Z,15.60
2022-11-24T01:26:14.934Z,15.58
2022-11-24T01:26:24.926Z,15.57
2022-11-24T01:26:34.927Z,15.58
2022-11-24T01:26:44.932Z,15.58
2022-11-24T01:26:54.931Z,15.60
2022-11-24T01:27:04.935Z,15.58
2022-11-24T01:27:14.931Z,15.60
2022-11-24T01:27:24.936Z,15.61
2022-11-24T01:27:34.936Z,15.60
2022-11-24T01:27:44.940Z,15.58
2022-11-24T01:27:54.938Z,15.57
2022-11-24T01:28:04.963Z,15.60
2022-11-24T01:28:14.936Z,15.60
2022-11-24T01:28:24.943Z,15.58
2022-11-24T01:28:35.792Z,15.58
2022-11-24T01:28:47.475Z,15.58
2022-11-24T01:28:54.943Z,15.58
2022-11-24T01:29:04.952Z,15.57
2022-11-24T01:29:14.948Z,15.57
2022-11-24T01:29:24.940Z,15.58
2022-11-24T01:29:34.950Z,15.57
2022-11-24T01:29:44.941Z,15.58
2022-11-24T01:29:54.942Z,15.57
2022-11-24T01:30:04.960Z,15.58
2022-11-24T01:30:14.976Z,15.58
2022-11-24T01:30:24.949Z,15.58
2022-11-24T01:30:34.959Z,15.58
2022-11-24T01:30:44.970Z,15.58
2022-11-24T01:30:54.963Z,15.57
2022-11-24T01:31:04.985Z,15.58
2022-11-24T01:31:14.994Z,15.58
2022-11-24T01:31:25.000Z,15.57
2022-11-24T01:31:34.947Z,15.57
2022-11-24T01:31:44.951Z,15.55
2022-11-24T01:31:54.950Z,15.58
2022-11-24T01:32:04.952Z,15.58
2022-11-24T01:32:14.951Z,15.57
2022-11-24T01:32:24.951Z,15.60
2022-11-24T01:32:34.942Z,15.57
2022-11-24T01:32:45.006Z,15.57
2022-11-24T01:32:54.953Z,15.57
2022-11-24T01:33:04.954Z,15.57
2022-11-24T01:33:14.962Z,15.57
2022-11-24T01:33:24.957Z,15.57
2022-11-24T01:33:35.794Z,15.57
2022-11-24T01:33:44.960Z,15.57
2022-11-24T01:33:54.958Z,15.55
2022-11-24T01:34:04.978Z,15.55
2022-11-24T01:34:14.958Z,15.57
2022-11-24T01:34:24.959Z,15.55
2022-11-24T01:34:35.202Z,15.57
2022-11-24T01:34:44.967Z,15.57
2022-11-24T01:34:54.959Z,15.57
2022-11-24T01:35:04.962Z,15.57
2022-11-24T01:35:14.966Z,15.58
2022-11-24T01:35:24.965Z,15.55
2022-11-24T01:35:34.963Z,15.55
2022-11-24T01:35:44.968Z,15.55
2022-11-24T01:35:54.966Z,15.57
2022-11-24T01:36:04.966Z,15.57
2022-11-24T01:36:14.958Z,15.57
2022-11-24T01:36:24.975Z,15.57
2022-11-24T01:36:34.972Z,15.57
2022-11-24T01:36:45.006Z,15.57
2022-11-24T01:36:54.981Z,15.55
2022-11-24T01:37:04.970Z,15.54
2022-11-24T01:37:14.984Z,15.57
2022-11-24T01:37:24.972Z,15.55
2022-11-24T01:37:34.974Z,15.57
2022-11-24T01:37:44.982Z,15.57
2022-11-24T01:37:54.977Z,15.57
2022-11-24T01:38:04.962Z,15.55
2022-11-24T01:38:14.985Z,15.55
2022-11-24T01:38:24.977Z,15.55
2022-11-24T01:38:35.801Z,15.57
2022-11-24T01:38:44.973Z,15.57
2022-11-24T01:38:54.978Z,15.57
2022-11-24T01:39:04.985Z,15.55
2022-11-24T01:39:14.982Z,15.57
2022-11-24T01:39:24.980Z,15.57
2022-11-24T01:39:34.982Z,15.55
2022-11-24T01:39:44.977Z,15.55
2022-11-24T01:39:54.980Z,15.57
2022-11-24T01:40:05.017Z,15.55
2022-11-24T01:40:14.980Z,15.55
2022-11-24T01:40:24.985Z,15.57
2022-11-24T01:40:35.000Z,15.55
2022-11-24T01:40:45.001Z,15.57
2022-11-24T01:40:54.986Z,15.55
2022-11-24T01:41:04.992Z,15.55
2022-11-24T01:41:14.984Z,15.57
2022-11-24T01:41:24.986Z,15.57
2022-11-24T01:41:34.992Z,15.57
2022-11-24T01:41:44.987Z,15.55
2022-11-24T01:41:54.990Z,15.57
2022-11-24T01:42:04.986Z,15.55
2022-11-24T01:42:14.988Z,15.54
2022-11-24T01:42:24.988Z,15.58
2022-11-24T01:42:34.989Z,15.57
2022-11-24T01:42:44.977Z,15.55
2022-11-24T01:42:54.991Z,15.55
2022-11-24T01:43:04.991Z,15.55
2022-11-24T01:43:14.994Z,15.57
2022-11-24T01:43:24.999Z,15.57
2022-11-24T01:43:35.800Z,15.55
2022-11-24T01:43:45.000Z,15.57
2022-11-24T01:43:55.001Z,15.57
2022-11-24T01:44:05.008Z,15.55
2022-11-24T01:44:15.000Z,15.54
2022-11-24T01:44:25.007Z,15.55
2022-11-24T01:44:35.251Z,15.57
2022-11-24T01:44:45.030Z,15.54
2022-11-24T01:44:55.006Z,15.54
2022-11-24T01:45:05.005Z,15.55
2022-11-24T01:45:15.003Z,15.54
2022-11-24T01:45:25.008Z,15.55
2022-11-24T01:45:35.007Z,15.55
2022-11-24T01:45:45.068Z,15.54
2022-11-24T01:45:55.044Z,15.54
2022-11-24T01:46:05.058Z,15.55
2022-11-24T01:46:15.053Z,15.54
2022-11-24T01:46:25.071Z,15.54
2022-11-24T01:46:35.112Z,15.54
2022-11-24T01:46:45.014Z,15.54
2022-11-24T01:46:55.009Z,15.54
2022-11-24T01:47:05.014Z,15.54
2022-11-24T01:47:15.009Z,15.54
2022-11-24T01:47:25.008Z,15.55
2022-11-24T01:47:35.024Z,15.55
2022-11-24T01:47:45.007Z,15.54
2022-11-24T01:47:55.015Z,15.54
2022-11-24T01:48:05.018Z,15.55
2022-11-24T01:48:15.012Z,15.54
2022-11-24T01:48:27.811Z,15.54
2022-11-24T01:48:35.799Z,15.55
2022-11-24T01:48:45.016Z,15.55
2022-11-24T01:48:55.015Z,15.54
2022-11-24T01:49:05.022Z,15.54
2022-11-24T01:49:15.018Z,15.54
2022-11-24T01:49:25.021Z,15.54
2022-11-24T01:49:35.020Z,15.54
2022-11-24T01:49:45.019Z,15.54
2022-11-24T01:49:55.020Z,15.54
2022-11-24T01:50:05.029Z,15.54
2022-11-24T01:50:15.020Z,15.55
2022-11-24T01:50:25.018Z,15.55
2022-11-24T01:50:35.037Z,15.54
2022-11-24T01:50:45.023Z,15.55
2022-11-24T01:50:55.031Z,15.54
2022-11-24T01:51:05.028Z,15.55
2022-11-24T01:51:15.025Z,15.55
2022-11-24T01:51:25.029Z,15.55
2022-11-24T01:51:35.026Z,15.55
2022-11-24T01:51:45.025Z,15.55
2022-11-24T01:51:55.037Z,15.54
2022-11-24T01:52:05.031Z,15.55
2022-11-24T01:52:15.030Z,15.54
2022-11-24T01:52:25.039Z,15.54
2022-11-24T01:52:35.030Z,15.54
2022-11-24T01:52:45.030Z,15.55
2022-11-24T01:52:55.036Z,15.54
2022-11-24T01:53:05.033Z,15.54
2022-11-24T01:53:15.034Z,15.54
2022-11-24T01:53:25.034Z,15.55
2022-11-24T01:53:35.058Z,15.54
2022-11-24T01:53:45.035Z,15.54
2022-11-24T01:53:55.036Z,15.55
2022-11-24T01:54:05.036Z,15.54
2022-11-24T01:54:15.032Z,15.54
2022-11-24T01:54:25.037Z,15.55
2022-11-24T01:54:35.220Z,15.54
2022-11-24T01:54:45.039Z,15.54
2022-11-24T01:54:55.024Z,15.54
2022-11-24T01:55:05.036Z,15.55
2022-11-24T01:55:15.041Z,15.54
2022-11-24T01:55:25.040Z,15.52
2022-11-24T01:55:35.040Z,15.54
2022-11-24T01:55:45.042Z,15.54
2022-11-24T01:55:55.044Z,15.55
2022-11-24T01:56:05.039Z,15.54
2022-11-24T01:56:15.049Z,15.54
2022-11-24T01:56:25.047Z,15.54
2022-11-24T01:56:35.045Z,15.55
2022-11-24T01:56:45.048Z,15.54
2022-11-24T01:56:55.050Z,15.54
2022-11-24T01:57:05.045Z,15.54
2022-11-24T01:57:15.048Z,15.55
2022-11-24T01:57:25.052Z,15.54
2022-11-24T01:57:35.038Z,15.54
2022-11-24T01:57:45.057Z,15.55
2022-11-24T01:57:55.052Z,15.54
2022-11-24T01:58:05.057Z,15.55
2022-11-24T01:58:15.044Z,15.54
2022-11-24T01:58:25.060Z,15.54
2022-11-24T01:58:35.053Z,15.55
2022-11-24T01:58:45.066Z,15.55
2022-11-24T01:58:55.059Z,15.54
2022-11-24T01:59:05.058Z,15.55
2022-11-24T01:59:15.064Z,15.55
2022-11-24T01:59:25.061Z,15.54
2022-11-24T01:59:35.056Z,15.52
2022-11-24T01:59:45.059Z,15.55
2022-11-24T01:59:55.061Z,15.54
2022-11-24T02:00:05.059Z,15.54
2022-11-24T02:00:15.064Z,15.54
2022-11-24T02:00:25.062Z,15.55
2022-11-24T02:00:35.061Z,15.54
2022-11-24T02:00:45.068Z,15.54
2022-11-24T02:00:55.064Z,15.54
2022-11-24T02:01:05.126Z,15.54
2022-11-24T02:01:15.139Z,15.54
2022-11-24T02:01:25.117Z,15.54
2022-11-24T02:01:35.160Z,15.55
2022-11-24T02:01:45.137Z,15.54
2022-11-24T02:01:55.141Z,15.54
2022-11-24T02:02:05.136Z,15.54
2022-11-24T02:02:15.094Z,15.52
2022-11-24T02:02:25.134Z,15.55
2022-11-24T02:02:35.137Z,15.52
2022-11-24T02:02:45.181Z,15.52
2022-11-24T02:02:55.120Z,15.55
2022-11-24T02:03:05.115Z,15.54
2022-11-24T02:03:15.069Z,15.54
2022-11-24T02:03:25.070Z,15.55
2022-11-24T02:03:35.069Z,15.54
2022-11-24T02:03:45.072Z,15.54
2022-11-24T02:03:55.073Z,15.54
2022-11-24T02:04:05.078Z,15.54
2022-11-24T02:04:15.075Z,15.54
2022-11-24T02:04:25.083Z,15.55
2022-11-24T02:04:35.307Z,15.55
2022-11-24T02:04:45.079Z,15.54
2022-11-24T02:04:55.074Z,15.54
2022-11-24T02:05:05.077Z,15.54
2022-11-24T02:05:15.077Z,15.54
2022-11-24T02:05:25.085Z,15.55
2022-11-24T02:05:35.079Z,15.52
2022-11-24T02:05:45.077Z,15.54
2022-11-24T02:05:55.080Z,15.55
2022-11-24T02:06:05.085Z,15.54
2022-11-24T02:06:15.084Z,15.54
2022-11-24T02:06:25.079Z,15.54
2022-11-24T02:06:35.089Z,15.54
2022-11-24T02:06:45.081Z,15.54
2022-11-24T02:06:55.082Z,15.54
2022-11-24T02:07:05.091Z,15.54
2022-11-24T02:07:15.139Z,15.54
2022-11-24T02:07:25.140Z,15.52
2022-11-24T02:07:35.122Z,15.54
2022-11-24T02:07:45.183Z,15.54
2022-11-24T02:07:55.150Z,15.54
2022-11-24T02:08:05.081Z,15.54
2022-11-24T02:08:15.087Z,15.55
2022-11-24T02:08:25.091Z,15.54
2022-11-24T02:08:35.155Z,15.54
2022-11-24T02:08:45.098Z,15.54